Terminal Aerodrome Forecast
Issued by NWS Pocatello, ID

Home | Current Version | Previous Version | Text Only | Print | Product List | Glossary On
Versions: 1 2 3 4 5 6 7 8 9 10 11 12 13
000
FTUS45 KPIH 222328
TAFBYI
TAF
KBYI 222328Z 2300/2324 27011KT P6SM SCT080
     FM230300 24012KT P6SM -SHRA SCT020 OVC040
     FM230700 25012G22KT P6SM SCT040 BKN060
     FM231500 27015KT P6SM SCT200=

USA.gov is the U.S. government's official web portal to all federal, state and local government web resources and services.